sensor_id;sensor_type;location;lat;lon;timestamp;pressure;altitude;pressure_sealevel;temperature;humidity
10079;BME280;5078;42.544;22.966;2023-05-10T00:01:20;94065.84;;;10.42;100.00
10079;BME280;5078;42.544;22.966;2023-05-10T00:03:47;94055.91;;;10.28;100.00
10079;BME280;5078;42.544;22.966;2023-05-10T00:06:15;94056.75;;;9.96;100.00
10079;BME280;5078;42.544;22.966;2023-05-10T00:08:42;94059.59;;;9.94;100.00
10079;BME280;5078;42.544;22.966;2023-05-10T00:11:09;94055.97;;;9.79;100.00
10079;BME280;5078;42.544;22.966;2023-05-10T00:13:35;94056.94;;;10.02;100.00
10079;BME280;5078;42.544;22.966;2023-05-10T00:16:02;94044.38;;;9.96;100.00
10079;BME280;5078;42.544;22.966;2023-05-10T00:18:29;94051.97;;;9.99;100.00
10079;BME280;5078;42.544;22.966;2023-05-10T00:20:56;94052.78;;;10.08;100.00
10079;BME280;5078;42.544;22.966;2023-05-10T00:23:24;94036.22;;;10.06;100.00
10079;BME280;5078;42.544;22.966;2023-05-10T00:25:51;94046.16;;;10.28;100.00
10079;BME280;5078;42.544;22.966;2023-05-10T00:28:17;94040.38;;;10.08;100.00
10079;BME280;5078;42.544;22.966;2023-05-10T00:30:44;94041.03;;;10.19;100.00
10079;BME280;5078;42.544;22.966;2023-05-10T00:33:11;94044.31;;;10.21;100.00
10079;BME280;5078;42.544;22.966;2023-05-10T00:35:39;94045.81;;;10.31;100.00
10079;BME280;5078;42.544;22.966;2023-05-10T00:38:05;94044.47;;;10.27;100.00
10079;BME280;5078;42.544;22.966;2023-05-10T00:40:35;94038.53;;;10.33;100.00
10079;BME280;5078;42.544;22.966;2023-05-10T00:43:02;94042.66;;;10.36;100.00
10079;BME280;5078;42.544;22.966;2023-05-10T00:45:29;94036.69;;;10.42;100.00
10079;BME280;5078;42.544;22.966;2023-05-10T00:47:56;94036.72;;;10.34;100.00
10079;BME280;5078;42.544;22.966;2023-05-10T00:50:23;94045.28;;;10.44;100.00
10079;BME280;5078;42.544;22.966;2023-05-10T00:52:50;94035.66;;;10.43;100.00
10079;BME280;5078;42.544;22.966;2023-05-10T00:55:17;94037.06;;;10.31;100.00
10079;BME280;5078;42.544;22.966;2023-05-10T00:57:46;94036.69;;;10.42;100.00
10079;BME280;5078;42.544;22.966;2023-05-10T01:00:14;94029.06;;;10.23;100.00
10079;BME280;5078;42.544;22.966;2023-05-10T01:02:43;93998.69;;;9.86;100.00
10079;BME280;5078;42.544;22.966;2023-05-10T01:05:10;94028.47;;;9.96;100.00
10079;BME280;5078;42.544;22.966;2023-05-10T01:07:37;94032.59;;;10.07;100.00
10079;BME280;5078;42.544;22.966;2023-05-10T01:10:05;94033.22;;;10.17;100.00
10079;BME280;5078;42.544;22.966;2023-05-10T01:12:32;94029.41;;;10.28;100.00
10079;BME280;5078;42.544;22.966;2023-05-10T01:15:01;94020.47;;;10.37;100.00
10079;BME280;5078;42.544;22.966;2023-05-10T01:17:28;94024.75;;;10.46;100.00
10079;BME280;5078;42.544;22.966;2023-05-10T01:19:55;94027.25;;;10.40;100.00
10079;BME280;5078;42.544;22.966;2023-05-10T01:22:49;94026.41;;;10.39;100.00
10079;BME280;5078;42.544;22.966;2023-05-10T01:25:34;94025.09;;;10.35;100.00
10079;BME280;5078;42.544;22.966;2023-05-10T01:28:17;94012.53;;;10.29;100.00
10079;BME280;5078;42.544;22.966;2023-05-10T01:31:25;94023.91;;;10.46;100.00
10079;BME280;5078;42.544;22.966;2023-05-10T01:33:59;94024.09;;;10.44;100.00
10079;BME280;5078;42.544;22.966;2023-05-10T01:36:31;94023.13;;;10.37;100.00
10079;BME280;5078;42.544;22.966;2023-05-10T01:39:03;94022.06;;;10.54;100.00
10079;BME280;5078;42.544;22.966;2023-05-10T01:41:38;94012.38;;;10.70;100.00
10079;BME280;5078;42.544;22.966;2023-05-10T01:44:11;94021.03;;;10.64;100.00
10079;BME280;5078;42.544;22.966;2023-05-10T01:46:42;94013.44;;;10.52;100.00
10079;BME280;5078;42.544;22.966;2023-05-10T01:49:15;94016.59;;;10.48;100.00
10079;BME280;5078;42.544;22.966;2023-05-10T01:51:46;94017.81;;;10.37;100.00
10079;BME280;5078;42.544;22.966;2023-05-10T01:54:17;94018.50;;;10.14;100.00
10079;BME280;5078;42.544;22.966;2023-05-10T01:56:48;94018.84;;;10.03;100.00
10079;BME280;5078;42.544;22.966;2023-05-10T01:59:18;94010.19;;;10.26;100.00
10079;BME280;5078;42.544;22.966;2023-05-10T02:01:47;94011.53;;;10.22;100.00
10079;BME280;5078;42.544;22.966;2023-05-10T02:04:16;94008.44;;;10.02;100.00
10079;BME280;5078;42.544;22.966;2023-05-10T02:06:45;94002.28;;;10.09;100.00
10079;BME280;5078;42.544;22.966;2023-05-10T02:09:14;94010.25;;;9.93;100.00
10079;BME280;5078;42.544;22.966;2023-05-10T02:11:43;93991.25;;;9.81;100.00
10079;BME280;5078;42.544;22.966;2023-05-10T02:14:11;94007.78;;;9.91;100.00
10079;BME280;5078;42.544;22.966;2023-05-10T02:16:39;94004.63;;;10.04;100.00
10079;BME280;5078;42.544;22.966;2023-05-10T02:19:07;94009.22;;;10.10;100.00
10079;BME280;5078;42.544;22.966;2023-05-10T02:21:37;94003.78;;;9.96;100.00
10079;BME280;5078;42.544;22.966;2023-05-10T02:24:08;94003.16;;;9.93;100.00
10079;BME280;5078;42.544;22.966;2023-05-10T02:26:39;94001.59;;;10.15;100.00
10079;BME280;5078;42.544;22.966;2023-05-10T02:29:10;94004.06;;;10.25;100.00
10079;BME280;5078;42.544;22.966;2023-05-10T02:31:37;94004.56;;;10.37;100.00
10079;BME280;5078;42.544;22.966;2023-05-10T02:34:07;93998.25;;;10.38;100.00
10079;BME280;5078;42.544;22.966;2023-05-10T02:36:40;94001.09;;;10.36;100.00
10079;BME280;5078;42.544;22.966;2023-05-10T02:39:07;93989.31;;;10.39;100.00
10079;BME280;5078;42.544;22.966;2023-05-10T02:41:38;93994.28;;;10.42;100.00
10079;BME280;5078;42.544;22.966;2023-05-10T02:44:09;93989.31;;;10.39;100.00
10079;BME280;5078;42.544;22.966;2023-05-10T02:46:43;94004.09;;;10.33;100.00
10079;BME280;5078;42.544;22.966;2023-05-10T02:49:17;94004.53;;;10.45;100.00
10079;BME280;5078;42.544;22.966;2023-05-10T02:51:51;94004.78;;;10.03;100.00
10079;BME280;5078;42.544;22.966;2023-05-10T02:54:22;94003.47;;;9.90;100.00
10079;BME280;5078;42.544;22.966;2023-05-10T02:56:57;94001.16;;;9.87;100.00
10079;BME280;5078;42.544;22.966;2023-05-10T02:59:26;94002.63;;;9.98;100.00
10079;BME280;5078;42.544;22.966;2023-05-10T03:01:53;94000.00;;;10.06;100.00
10079;BME280;5078;42.544;22.966;2023-05-10T03:04:20;93998.31;;;10.13;100.00
10079;BME280;5078;42.544;22.966;2023-05-10T03:06:48;93998.94;;;10.15;100.00
10079;BME280;5078;42.544;22.966;2023-05-10T03:09:15;94003.75;;;10.20;100.00
10079;BME280;5078;42.544;22.966;2023-05-10T03:11:51;94003.22;;;10.41;100.00
10079;BME280;5078;42.544;22.966;2023-05-10T03:14:31;93987.13;;;10.51;100.00
10079;BME280;5078;42.544;22.966;2023-05-10T03:17:05;94001.78;;;10.70;100.00
10079;BME280;5078;42.544;22.966;2023-05-10T03:19:42;94006.84;;;10.40;100.00
10079;BME280;5078;42.544;22.966;2023-05-10T03:22:12;94007.66;;;10.49;100.00
10079;BME280;5078;42.544;22.966;2023-05-10T03:24:42;94012.06;;;10.65;100.00
10079;BME280;5078;42.544;22.966;2023-05-10T03:27:10;94013.03;;;10.72;100.00
10079;BME280;5078;42.544;22.966;2023-05-10T03:29:38;93999.22;;;10.45;100.00
10079;BME280;5078;42.544;22.966;2023-05-10T03:32:05;94007.22;;;10.21;100.00
10079;BME280;5078;42.544;22.966;2023-05-10T03:34:32;94007.38;;;10.35;100.00
10079;BME280;5078;42.544;22.966;2023-05-10T03:36:59;94015.78;;;10.47;100.00
10079;BME280;5078;42.544;22.966;2023-05-10T03:39:27;94012.47;;;10.45;100.00
10079;BME280;5078;42.544;22.966;2023-05-10T03:41:53;94012.50;;;10.37;100.00
10079;BME280;5078;42.544;22.966;2023-05-10T03:44:20;94012.31;;;10.47;100.00
10079;BME280;5078;42.544;22.966;2023-05-10T03:46:47;94020.19;;;10.63;100.00
10079;BME280;5078;42.544;22.966;2023-05-10T03:49:14;94017.22;;;10.58;100.00
10079;BME280;5078;42.544;22.966;2023-05-10T03:51:40;94021.94;;;10.40;100.00
10079;BME280;5078;42.544;22.966;2023-05-10T03:54:07;94020.47;;;10.37;100.00
10079;BME280;5078;42.544;22.966;2023-05-10T03:56:35;94018.91;;;10.59;100.00
10079;BME280;5078;42.544;22.966;2023-05-10T03:59:02;94027.63;;;10.68;100.00
10079;BME280;5078;42.544;22.966;2023-05-10T04:01:32;94009.81;;;10.53;100.00
10079;BME280;5078;42.544;22.966;2023-05-10T04:03:59;94030.78;;;10.63;100.00
10079;BME280;5078;42.544;22.966;2023-05-10T04:06:26;94021.78;;;10.41;100.00
10079;BME280;5078;42.544;22.966;2023-05-10T04:08:52;94022.47;;;10.10;100.00
10079;BME280;5078;42.544;22.966;2023-05-10T04:11:20;94026.06;;;10.26;100.00
10079;BME280;5078;42.544;22.966;2023-05-10T04:13:49;94030.75;;;10.15;100.00
10079;BME280;5078;42.544;22.966;2023-05-10T04:16:16;94020.31;;;10.22;100.00
10079;BME280;5078;42.544;22.966;2023-05-10T04:18:42;94019.69;;;10.04;100.00
10079;BME280;5078;42.544;22.966;2023-05-10T04:21:11;94022.97;;;10.06;100.00
10079;BME280;5078;42.544;22.966;2023-05-10T04:23:38;94018.53;;;9.98;100.00
10079;BME280;5078;42.544;22.966;2023-05-10T04:26:05;94018.25;;;9.52;100.00
10079;BME280;5078;42.544;22.966;2023-05-10T04:28:32;94023.03;;;9.81;100.00
10079;BME280;5078;42.544;22.966;2023-05-10T04:31:03;94014.22;;;9.97;100.00
10079;BME280;5078;42.544;22.966;2023-05-10T04:33:31;94026.31;;;10.00;100.00
10079;BME280;5078;42.544;22.966;2023-05-10T04:35:58;94024.03;;;9.88;100.00
10079;BME280;5078;42.544;22.966;2023-05-10T04:38:25;94027.16;;;9.92;100.00
10079;BME280;5078;42.544;22.966;2023-05-10T04:40:52;94021.50;;;10.11;100.00
10079;BME280;5078;42.544;22.966;2023-05-10T04:43:19;94023.81;;;10.14;100.00
10079;BME280;5078;42.544;22.966;2023-05-10T04:45:45;94032.16;;;9.79;100.00
10079;BME280;5078;42.544;22.966;2023-05-10T04:48:14;94033.13;;;9.53;100.00
10079;BME280;5078;42.544;22.966;2023-05-10T04:50:40;94030.16;;;9.32;100.00
10079;BME280;5078;42.544;22.966;2023-05-10T04:53:07;94035.25;;;9.17;100.00
10079;BME280;5078;42.544;22.966;2023-05-10T04:55:34;94035.47;;;9.56;100.00
10079;BME280;5078;42.544;22.966;2023-05-10T04:58:00;94044.56;;;9.54;100.00
10079;BME280;5078;42.544;22.966;2023-05-10T05:00:28;94045.69;;;9.35;100.00
10079;BME280;5078;42.544;22.966;2023-05-10T05:02:54;94042.56;;;9.39;100.00
10079;BME280;5078;42.544;22.966;2023-05-10T05:05:23;94047.34;;;9.44;100.00
10079;BME280;5078;42.544;22.966;2023-05-10T05:07:49;94051.16;;;9.49;100.00
10079;BME280;5078;42.544;22.966;2023-05-10T05:10:16;94050.50;;;9.39;100.00
10079;BME280;5078;42.544;22.966;2023-05-10T05:12:43;94055.97;;;9.54;100.00
10079;BME280;5078;42.544;22.966;2023-05-10T05:15:10;94053.31;;;9.54;100.00
10079;BME280;5078;42.544;22.966;2023-05-10T05:17:38;94062.38;;;9.43;100.00
10079;BME280;5078;42.544;22.966;2023-05-10T05:20:06;94057.94;;;9.44;100.00
10079;BME280;5078;42.544;22.966;2023-05-10T05:22:35;94051.50;;;9.46;100.00
10079;BME280;5078;42.544;22.966;2023-05-10T05:25:02;94057.44;;;9.57;100.00
10079;BME280;5078;42.544;22.966;2023-05-10T05:27:29;94057.59;;;9.55;100.00
10079;BME280;5078;42.544;22.966;2023-05-10T05:29:56;94049.00;;;9.37;100.00
10079;BME280;5078;42.544;22.966;2023-05-10T05:32:23;94058.88;;;9.18;100.00
10079;BME280;5078;42.544;22.966;2023-05-10T05:34:51;94050.66;;;8.71;100.00
10079;BME280;5078;42.544;22.966;2023-05-10T05:37:20;94074.53;;;8.53;100.00
10079;BME280;5078;42.544;22.966;2023-05-10T05:39:49;94073.91;;;8.59;100.00
10079;BME280;5078;42.544;22.966;2023-05-10T05:42:15;94076.09;;;8.72;100.00
10079;BME280;5078;42.544;22.966;2023-05-10T05:44:43;94078.63;;;8.81;100.00
10079;BME280;5078;42.544;22.966;2023-05-10T05:47:10;94079.78;;;8.79;100.00
10079;BME280;5078;42.544;22.966;2023-05-10T05:49:37;94083.63;;;9.01;100.00
10079;BME280;5078;42.544;22.966;2023-05-10T05:52:04;94078.53;;;9.07;100.00
10079;BME280;5078;42.544;22.966;2023-05-10T05:54:31;94084.84;;;9.15;100.00
10079;BME280;5078;42.544;22.966;2023-05-10T05:57:00;94091.28;;;8.70;100.00
10079;BME280;5078;42.544;22.966;2023-05-10T05:59:27;94080.69;;;9.12;100.00
10079;BME280;5078;42.544;22.966;2023-05-10T06:01:53;94064.09;;;8.85;100.00
10079;BME280;5078;42.544;22.966;2023-05-10T06:04:20;94077.97;;;8.88;100.00
10079;BME280;5078;42.544;22.966;2023-05-10T06:06:47;94082.84;;;8.66;100.00
10079;BME280;5078;42.544;22.966;2023-05-10T06:09:14;94076.81;;;8.82;100.00
10079;BME280;5078;42.544;22.966;2023-05-10T06:11:41;94079.66;;;8.97;100.00
10079;BME280;5078;42.544;22.966;2023-05-10T06:14:10;94076.56;;;9.18;100.00
10079;BME280;5078;42.544;22.966;2023-05-10T06:16:36;94073.72;;;8.95;100.00
10079;BME280;5078;42.544;22.966;2023-05-10T06:19:03;94083.81;;;8.99;100.00
10079;BME280;5078;42.544;22.966;2023-05-10T06:21:30;94083.31;;;9.04;100.00
10079;BME280;5078;42.544;22.966;2023-05-10T06:23:57;94082.25;;;8.80;100.00
10079;BME280;5078;42.544;22.966;2023-05-10T06:26:23;94086.28;;;9.01;100.00
10079;BME280;5078;42.544;22.966;2023-05-10T06:28:52;94090.13;;;9.15;100.00
10079;BME280;5078;42.544;22.966;2023-05-10T06:31:20;94094.78;;;8.78;100.00
10079;BME280;5078;42.544;22.966;2023-05-10T06:33:47;94093.25;;;8.68;100.00
10079;BME280;5078;42.544;22.966;2023-05-10T06:36:14;94101.16;;;8.94;100.00
10079;BME280;5078;42.544;22.966;2023-05-10T06:38:40;94093.22;;;8.94;100.00
10079;BME280;5078;42.544;22.966;2023-05-10T06:41:07;94090.13;;;9.23;100.00
10079;BME280;5078;42.544;22.966;2023-05-10T06:43:34;94067.25;;;8.89;100.00
10079;BME280;5078;42.544;22.966;2023-05-10T06:46:01;94101.38;;;9.09;100.00
10079;BME280;5078;42.544;22.966;2023-05-10T06:48:29;94095.59;;;9.21;100.00
10079;BME280;5078;42.544;22.966;2023-05-10T06:50:55;94103.47;;;8.97;100.00
10079;BME280;5078;42.544;22.966;2023-05-10T06:53:22;94094.06;;;9.11;100.00
10079;BME280;5078;42.544;22.966;2023-05-10T06:55:49;94096.59;;;9.20;100.00
10079;BME280;5078;42.544;22.966;2023-05-10T06:58:16;94103.56;;;9.38;100.00
10079;BME280;5078;42.544;22.966;2023-05-10T07:00:42;94092.69;;;9.49;100.00
10079;BME280;5078;42.544;22.966;2023-05-10T07:03:10;94102.59;;;9.47;100.00
10079;BME280;5078;42.544;22.966;2023-05-10T07:05:38;94103.59;;;9.62;100.00
10079;BME280;5078;42.544;22.966;2023-05-10T07:08:05;94103.22;;;9.24;100.00
10079;BME280;5078;42.544;22.966;2023-05-10T07:10:33;94096.97;;;9.50;100.00
10079;BME280;5078;42.544;22.966;2023-05-10T07:12:59;94102.75;;;9.29;100.00
10079;BME280;5078;42.544;22.966;2023-05-10T07:15:26;94104.97;;;8.99;100.00
10079;BME280;5078;42.544;22.966;2023-05-10T07:17:53;94100.03;;;9.21;100.00
10079;BME280;5078;42.544;22.966;2023-05-10T07:20:20;94104.25;;;9.48;100.00
10079;BME280;5078;42.544;22.966;2023-05-10T07:22:48;94106.25;;;9.54;100.00
10079;BME280;5078;42.544;22.966;2023-05-10T07:25:15;94110.09;;;9.76;100.00
10079;BME280;5078;42.544;22.966;2023-05-10T07:27:42;94109.41;;;9.90;100.00
10079;BME280;5078;42.544;22.966;2023-05-10T07:30:09;94113.56;;;10.01;100.00
10079;BME280;5078;42.544;22.966;2023-05-10T07:32:36;94119.84;;;10.08;100.00
10079;BME280;5078;42.544;22.966;2023-05-10T07:35:05;94118.84;;;10.18;100.00
10079;BME280;5078;42.544;22.966;2023-05-10T07:37:32;94113.22;;;9.88;100.00
10079;BME280;5078;42.544;22.966;2023-05-10T07:40:00;94121.50;;;9.93;100.00
10079;BME280;5078;42.544;22.966;2023-05-10T07:42:27;94123.00;;;9.71;100.00
10079;BME280;5078;42.544;22.966;2023-05-10T07:44:54;94123.59;;;9.40;100.00
10079;BME280;5078;42.544;22.966;2023-05-10T07:47:20;94112.72;;;9.60;100.00
10079;BME280;5078;42.544;22.966;2023-05-10T07:49:47;94107.25;;;9.69;100.00
10079;BME280;5078;42.544;22.966;2023-05-10T07:52:14;94119.84;;;10.08;100.00
10079;BME280;5078;42.544;22.966;2023-05-10T07:54:41;94121.50;;;10.01;100.00
10079;BME280;5078;42.544;22.966;2023-05-10T07:57:09;94128.47;;;10.02;100.00
10079;BME280;5078;42.544;22.966;2023-05-10T07:59:36;94108.72;;;9.47;100.00
10079;BME280;5078;42.544;22.966;2023-05-10T08:02:02;94117.34;;;9.90;100.00
10079;BME280;5078;42.544;22.966;2023-05-10T08:04:29;94120.84;;;9.66;100.00
10079;BME280;5078;42.544;22.966;2023-05-10T08:06:56;94115.88;;;9.96;100.00
10079;BME280;5078;42.544;22.966;2023-05-10T08:09:22;94124.16;;;10.01;100.00
10079;BME280;5078;42.544;22.966;2023-05-10T08:11:49;94122.31;;;9.85;100.00
10079;BME280;5078;42.544;22.966;2023-05-10T08:14:18;94119.84;;;10.08;100.00
10079;BME280;5078;42.544;22.966;2023-05-10T08:16:45;94129.41;;;10.26;100.00
10079;BME280;5078;42.544;22.966;2023-05-10T08:19:11;94127.44;;;10.52;100.00
10079;BME280;5078;42.544;22.966;2023-05-10T08:21:38;94133.25;;;10.56;100.00
10079;BME280;5078;42.544;22.966;2023-05-10T08:24:06;94132.34;;;10.80;100.00
10079;BME280;5078;42.544;22.966;2023-05-10T08:26:33;94129.03;;;10.78;100.00
10079;BME280;5078;42.544;22.966;2023-05-10T08:29:00;94131.13;;;10.99;100.00
10079;BME280;5078;42.544;22.966;2023-05-10T08:31:28;94130.31;;;10.98;100.00
10079;BME280;5078;42.544;22.966;2023-05-10T08:33:55;94123.28;;;11.14;100.00
10079;BME280;5078;42.544;22.966;2023-05-10T08:36:21;94128.63;;;11.37;100.00
10079;BME280;5078;42.544;22.966;2023-05-10T08:38:50;94129.03;;;11.57;100.00
10079;BME280;5078;42.544;22.966;2023-05-10T08:41:18;94128.66;;;11.60;100.00
10079;BME280;5078;42.544;22.966;2023-05-10T08:43:46;94129.50;;;11.92;100.00
10079;BME280;5078;42.544;22.966;2023-05-10T08:46:16;94132.88;;;11.77;100.00
10079;BME280;5078;42.544;22.966;2023-05-10T08:48:46;94129.63;;;11.98;100.00
10079;BME280;5078;42.544;22.966;2023-05-10T08:51:14;94130.66;;;11.89;100.00
10079;BME280;5078;42.544;22.966;2023-05-10T08:53:41;94139.50;;;11.81;100.00
10079;BME280;5078;42.544;22.966;2023-05-10T08:56:09;94132.69;;;11.87;100.00
10079;BME280;5078;42.544;22.966;2023-05-10T08:58:36;94127.84;;;11.82;100.00
10079;BME280;5078;42.544;22.966;2023-05-10T09:01:03;94135.47;;;11.85;100.00
10079;BME280;5078;42.544;22.966;2023-05-10T09:03:30;94120.38;;;12.09;100.00
10079;BME280;5078;42.544;22.966;2023-05-10T09:05:59;94132.91;;;12.23;100.00
10079;BME280;5078;42.544;22.966;2023-05-10T09:08:26;94136.78;;;12.13;100.00
10079;BME280;5078;42.544;22.966;2023-05-10T09:10:53;94135.56;;;12.00;100.00
10079;BME280;5078;42.544;22.966;2023-05-10T09:13:21;94136.28;;;11.94;100.00
10079;BME280;5078;42.544;22.966;2023-05-10T09:15:48;94139.34;;;12.06;100.00
10079;BME280;5078;42.544;22.966;2023-05-10T09:18:15;94135.97;;;12.12;100.00
10079;BME280;5078;42.544;22.966;2023-05-10T09:20:42;94133.16;;;12.14;100.00
10079;BME280;5078;42.544;22.966;2023-05-10T09:23:10;94143.03;;;11.74;100.00
10079;BME280;5078;42.544;22.966;2023-05-10T09:25:37;94142.41;;;11.95;100.00
10079;BME280;5078;42.544;22.966;2023-05-10T09:28:08;94136.94;;;11.96;100.00
10079;BME280;5078;42.544;22.966;2023-05-10T09:30:35;94129.84;;;11.89;100.00
10079;BME280;5078;42.544;22.966;2023-05-10T09:33:02;94129.69;;;11.82;100.00
10079;BME280;5078;42.544;22.966;2023-05-10T09:35:30;94125.94;;;11.45;100.00
10079;BME280;5078;42.544;22.966;2023-05-10T09:37:59;94130.13;;;11.39;100.00
10079;BME280;5078;42.544;22.966;2023-05-10T09:40:28;94120.69;;;11.60;100.00
10079;BME280;5078;42.544;22.966;2023-05-10T09:42:56;94121.56;;;11.83;100.00
10079;BME280;5078;42.544;22.966;2023-05-10T09:45:25;94127.50;;;11.94;100.00
10079;BME280;5078;42.544;22.966;2023-05-10T09:47:53;94127.78;;;11.99;100.00
10079;BME280;5078;42.544;22.966;2023-05-10T09:50:20;94118.91;;;11.83;100.00
10079;BME280;5078;42.544;22.966;2023-05-10T09:52:49;94115.97;;;11.70;100.00
10079;BME280;5078;42.544;22.966;2023-05-10T09:55:18;94109.41;;;11.89;100.00
10079;BME280;5078;42.544;22.966;2023-05-10T09:57:46;94109.97;;;11.76;100.00
10079;BME280;5078;42.544;22.966;2023-05-10T10:00:18;94117.97;;;11.99;100.00
10079;BME280;5078;42.544;22.966;2023-05-10T10:02:46;94115.31;;;11.99;100.00
10079;BME280;5078;42.544;22.966;2023-05-10T10:05:13;94108.53;;;11.97;100.00
10079;BME280;5078;42.544;22.966;2023-05-10T10:07:40;94120.41;;;11.78;100.00
10079;BME280;5078;42.544;22.966;2023-05-10T10:10:08;94115.38;;;11.91;100.00
10079;BME280;5078;42.544;22.966;2023-05-10T10:12:38;94114.56;;;11.82;100.00
10079;BME280;5078;42.544;22.966;2023-05-10T10:15:08;94113.38;;;11.85;100.00
10079;BME280;5078;42.544;22.966;2023-05-10T10:17:36;94117.44;;;11.81;100.00
10079;BME280;5078;42.544;22.966;2023-05-10T10:20:04;94117.06;;;11.61;100.00
10079;BME280;5078;42.544;22.966;2023-05-10T10:22:31;94115.97;;;11.70;100.00
10079;BME280;5078;42.544;22.966;2023-05-10T10:24:58;94109.91;;;11.30;100.00
10079;BME280;5078;42.544;22.966;2023-05-10T10:27:31;94100.03;;;11.70;100.00
10079;BME280;5078;42.544;22.966;2023-05-10T10:30:06;94102.00;;;11.22;100.00
10079;BME280;5078;42.544;22.966;2023-05-10T10:32:54;94106.88;;;11.41;100.00
10079;BME280;5078;42.544;22.966;2023-05-10T10:35:28;94102.69;;;11.70;100.00
10079;BME280;5078;42.544;22.966;2023-05-10T10:37:55;94103.59;;;11.85;100.00
10079;BME280;5078;42.544;22.966;2023-05-10T10:40:24;94103.88;;;11.99;100.00
10079;BME280;5078;42.544;22.966;2023-05-10T10:42:51;94101.66;;;12.02;100.00
10079;BME280;5078;42.544;22.966;2023-05-10T10:45:20;94098.66;;;12.05;100.00
10079;BME280;5078;42.544;22.966;2023-05-10T10:47:48;94078.56;;;11.80;100.00
10079;BME280;5078;42.544;22.966;2023-05-10T10:50:17;94108.31;;;12.21;100.00
10079;BME280;5078;42.544;22.966;2023-05-10T10:52:44;94108.06;;;11.85;100.00
10079;BME280;5078;42.544;22.966;2023-05-10T10:55:12;94109.22;;;12.14;100.00
10079;BME280;5078;42.544;22.966;2023-05-10T10:57:44;94109.63;;;12.02;100.00
10079;BME280;5078;42.544;22.966;2023-05-10T11:00:23;94099.13;;;12.09;100.00
10079;BME280;5078;42.544;22.966;2023-05-10T11:02:52;94105.13;;;11.80;100.00
10079;BME280;5078;42.544;22.966;2023-05-10T11:05:24;94117.22;;;11.91;100.00
10079;BME280;5078;42.544;22.966;2023-05-10T11:07:52;94110.88;;;12.15;100.00
10079;BME280;5078;42.544;22.966;2023-05-10T11:10:19;94109.75;;;12.09;100.00
10079;BME280;5078;42.544;22.966;2023-05-10T11:12:53;94106.31;;;12.00;100.00
10079;BME280;5078;42.544;22.966;2023-05-10T11:15:28;94112.94;;;12.04;100.00
10079;BME280;5078;42.544;22.966;2023-05-10T11:17:56;94114.50;;;11.99;100.00
10079;BME280;5078;42.544;22.966;2023-05-10T11:20:23;94108.25;;;11.92;100.00
10079;BME280;5078;42.544;22.966;2023-05-10T11:23:10;94114.59;;;12.05;100.00
10079;BME280;5078;42.544;22.966;2023-05-10T11:25:41;94105.59;;;12.29;100.00
10079;BME280;5078;42.544;22.966;2023-05-10T11:28:08;94105.25;;;12.47;100.00
10079;BME280;5078;42.544;22.966;2023-05-10T11:30:35;94100.53;;;12.20;100.00
10079;BME280;5078;42.544;22.966;2023-05-10T11:33:03;94102.88;;;12.67;100.00
10079;BME280;5078;42.544;22.966;2023-05-10T11:35:30;94104.84;;;12.73;100.00
10079;BME280;5078;42.544;22.966;2023-05-10T11:37:57;94098.13;;;12.92;100.00
10079;BME280;5078;42.544;22.966;2023-05-10T11:40:23;94099.13;;;12.91;100.00
10079;BME280;5078;42.544;22.966;2023-05-10T11:42:51;94108.97;;;12.91;100.00
10079;BME280;5078;42.544;22.966;2023-05-10T11:45:18;94102.91;;;12.97;100.00
10079;BME280;5078;42.544;22.966;2023-05-10T11:47:48;94102.72;;;13.13;100.00
10079;BME280;5078;42.544;22.966;2023-05-10T11:50:17;94100.22;;;13.27;100.00
10079;BME280;5078;42.544;22.966;2023-05-10T11:52:43;94097.38;;;13.13;100.00
10079;BME280;5078;42.544;22.966;2023-05-10T11:55:10;94103.66;;;12.91;100.00
10079;BME280;5078;42.544;22.966;2023-05-10T11:57:38;94105.28;;;12.92;100.00
10079;BME280;5078;42.544;22.966;2023-05-10T12:00:07;94101.03;;;12.38;100.00
10079;BME280;5078;42.544;22.966;2023-05-10T12:02:34;94109.25;;;12.81;100.00
10079;BME280;5078;42.544;22.966;2023-05-10T12:05:02;94098.75;;;12.65;100.00
10079;BME280;5078;42.544;22.966;2023-05-10T12:07:30;94096.19;;;12.57;100.00
10079;BME280;5078;42.544;22.966;2023-05-10T12:10:06;94089.69;;;13.04;100.00
10079;BME280;5078;42.544;22.966;2023-05-10T12:12:39;94090.88;;;13.16;100.00
10079;BME280;5078;42.544;22.966;2023-05-10T12:15:11;94090.38;;;13.42;100.00
10079;BME280;5078;42.544;22.966;2023-05-10T12:17:38;94084.91;;;13.14;100.00
10079;BME280;5078;42.544;22.966;2023-05-10T12:20:16;94094.28;;;12.50;100.00
10079;BME280;5078;42.544;22.966;2023-05-10T12:22:49;94103.38;;;12.86;100.00
10079;BME280;5078;42.544;22.966;2023-05-10T12:25:16;94097.84;;;12.87;100.00
10079;BME280;5078;42.544;22.966;2023-05-10T12:27:51;94090.97;;;12.63;100.00
10079;BME280;5078;42.544;22.966;2023-05-10T12:30:22;94085.16;;;12.45;100.00
10079;BME280;5078;42.544;22.966;2023-05-10T12:32:49;94080.22;;;12.57;100.00
10079;BME280;5078;42.544;22.966;2023-05-10T12:35:16;94082.91;;;12.71;100.00
10079;BME280;5078;42.544;22.966;2023-05-10T12:37:47;94075.28;;;12.83;100.00
10079;BME280;5078;42.544;22.966;2023-05-10T12:40:14;94075.09;;;12.85;100.00
10079;BME280;5078;42.544;22.966;2023-05-10T12:42:41;94061.25;;;12.74;100.00
10079;BME280;5078;42.544;22.966;2023-05-10T12:45:10;94071.78;;;12.83;100.00
10079;BME280;5078;42.544;22.966;2023-05-10T12:47:38;94066.97;;;13.23;100.00
10079;BME280;5078;42.544;22.966;2023-05-10T12:50:05;94062.13;;;13.11;100.00
10079;BME280;5078;42.544;22.966;2023-05-10T12:52:32;94046.50;;;13.23;100.00
10079;BME280;5078;42.544;22.966;2023-05-10T12:55:00;94057.19;;;13.08;100.00
10079;BME280;5078;42.544;22.966;2023-05-10T12:57:28;94034.56;;;13.34;100.00
10079;BME280;5078;42.544;22.966;2023-05-10T12:59:55;94046.13;;;13.41;100.00